Time;durP1;ratioP1;P1;durP2;ratioP2;P2;SDS_P1;SDS_P2;PMS_P1;PMS_P2;Temp;Humidity;BMP_temperature;BMP_pressure;BME280_temperature;BME280_humidity;BME280_pressure;Samples;Min_cycle;Max_cycle;Signal;HPM_P1;HPM_P2
2023/07/25 05:33:27;;;;;;;16.50;14.60;;;16.80;99.90;;;;;;4865337;29;20052;-66
2023/07/25 05:36:03;;;;;;;18.98;13.32;;;16.80;99.90;;;;;;4887870;29;20044;-65
2023/07/25 05:38:30;;;;;;;20.92;15.10;;;16.90;99.90;;;;;;4889621;29;20048;-65
2023/07/25 05:40:57;;;;;;;17.35;12.88;;;16.90;99.90;;;;;;4887563;29;20053;-66
2023/07/25 05:43:24;;;;;;;15.50;12.95;;;17.00;99.90;;;;;;4885400;29;20132;-65
2023/07/25 05:45:51;;;;;;;17.63;15.13;;;17.00;99.90;;;;;;4888734;29;20060;-65
2023/07/25 05:48:18;;;;;;;18.10;14.38;;;17.10;99.90;;;;;;4887537;29;20504;-66
2023/07/25 05:50:50;;;;;;;13.55;12.23;;;17.10;99.90;;;;;;4888275;29;20125;-66
2023/07/25 05:53:17;;;;;;;19.00;13.25;;;17.10;99.90;;;;;;4888609;29;20045;-67
2023/07/25 05:55:48;;;;;;;15.05;13.50;;;17.20;99.90;;;;;;4871076;29;20072;-67
2023/07/25 05:58:15;;;;;;;14.93;13.32;;;17.10;99.90;;;;;;4887949;29;20506;-65
2023/07/25 06:00:43;;;;;;;17.45;14.10;;;17.20;99.90;;;;;;4888602;29;20076;-66
2023/07/25 06:03:11;;;;;;;13.40;12.00;;;17.20;99.90;;;;;;4887540;29;20138;-66
2023/07/25 06:05:39;;;;;;;16.95;12.80;;;17.30;99.90;;;;;;4887159;29;20052;-66
2023/07/25 06:08:06;;;;;;;14.10;12.15;;;17.40;99.90;;;;;;4888264;29;20045;-65
2023/07/25 06:10:35;;;;;;;15.77;12.98;;;17.40;99.90;;;;;;4887226;29;20047;-65
2023/07/25 06:13:06;;;;;;;15.70;12.30;;;17.50;99.90;;;;;;4887906;29;20139;-66
2023/07/25 06:15:36;;;;;;;16.55;13.13;;;17.50;99.90;;;;;;4886645;29;20036;-67
2023/07/25 06:18:04;;;;;;;15.07;10.90;;;17.50;99.90;;;;;;4887398;29;20049;-65
2023/07/25 06:20:32;;;;;;;15.15;13.60;;;17.50;99.90;;;;;;4888164;29;20586;-65
2023/07/25 06:23:00;;;;;;;13.13;11.52;;;17.50;99.90;;;;;;4885057;29;20058;-66
2023/07/25 06:25:27;;;;;;;14.02;10.23;;;17.40;99.90;;;;;;4885596;29;20311;-65
2023/07/25 06:27:54;;;;;;;13.98;11.50;;;17.30;99.90;;;;;;4885916;29;20067;-65
2023/07/25 06:30:21;;;;;;;13.93;12.45;;;17.30;99.90;;;;;;4887934;29;20076;-66
2023/07/25 06:32:48;;;;;;;14.27;12.55;;;17.40;99.90;;;;;;4884801;29;20355;-65
2023/07/25 06:35:19;;;;;;;14.30;10.73;;;17.40;99.90;;;;;;4888305;29;20056;-65
2023/07/25 06:37:46;;;;;;;12.32;11.15;;;17.40;99.90;;;;;;4887406;29;20066;-66
2023/07/25 06:40:13;;;;;;;12.77;11.18;;;17.40;99.90;;;;;;4887283;29;20040;-65
2023/07/25 06:42:40;;;;;;;13.50;11.38;;;17.50;99.90;;;;;;4887846;29;20151;-66
2023/07/25 06:45:09;;;;;;;10.40;9.13;;;17.60;99.90;;;;;;4886500;29;20147;-66
2023/07/25 06:47:36;;;;;;;13.25;10.68;;;17.70;99.90;;;;;;4869812;29;20049;-67
2023/07/25 06:50:04;;;;;;;10.80;9.50;;;17.80;99.90;;;;;;4887574;29;20067;-66
2023/07/25 06:52:30;;;;;;;11.40;10.20;;;17.80;99.90;;;;;;4887072;29;20060;-66
2023/07/25 06:54:57;;;;;;;13.25;10.85;;;17.70;99.90;;;;;;4888341;29;20163;-65
2023/07/25 06:57:24;;;;;;;12.65;10.73;;;17.60;99.90;;;;;;4887329;29;20056;-66
2023/07/25 06:59:51;;;;;;;14.63;10.68;;;17.60;99.90;;;;;;4886507;29;20135;-66
2023/07/25 07:02:18;;;;;;;17.00;9.90;;;17.50;99.90;;;;;;4885269;29;20081;-65
2023/07/25 07:04:45;;;;;;;12.88;8.07;;;17.40;99.90;;;;;;4885890;29;20120;-64
2023/07/25 07:07:12;;;;;;;16.58;9.20;;;17.30;99.90;;;;;;4886603;29;20062;-64
2023/07/25 07:09:39;;;;;;;10.18;6.57;;;17.20;99.90;;;;;;4885065;29;20044;-64
2023/07/25 07:12:07;;;;;;;9.98;5.43;;;17.00;99.90;;;;;;4889026;29;20048;-64
2023/07/25 07:14:34;;;;;;;10.90;5.75;;;16.90;99.90;;;;;;4887379;29;20052;-64
2023/07/25 07:17:00;;;;;;;7.40;4.95;;;16.90;99.90;;;;;;4885556;29;20171;-64
2023/07/25 07:19:27;;;;;;;13.23;4.90;;;16.90;99.90;;;;;;4883827;29;20135;-64
2023/07/25 07:21:54;;;;;;;14.40;5.38;;;16.70;99.90;;;;;;4887420;29;20096;-66
2023/07/25 07:24:21;;;;;;;7.85;5.57;;;16.70;99.90;;;;;;4886339;29;20052;-64
2023/07/25 07:26:48;;;;;;;4.25;3.60;;;16.70;99.90;;;;;;4886824;29;20048;-64
2023/07/25 07:29:15;;;;;;;5.45;3.70;;;16.60;99.90;;;;;;4887190;29;20048;-64
2023/07/25 07:31:42;;;;;;;4.45;3.72;;;16.60;99.90;;;;;;4886211;29;20076;-66
2023/07/25 07:34:14;;;;;;;3.42;2.80;;;16.60;99.90;;;;;;4881856;29;20048;-65
2023/07/25 07:36:42;;;;;;;5.90;3.60;;;16.50;99.90;;;;;;4889595;29;20052;-65
2023/07/25 07:39:10;;;;;;;3.65;3.20;;;16.40;99.90;;;;;;4890610;29;20045;-66
2023/07/25 07:41:37;;;;;;;5.88;3.10;;;16.40;99.90;;;;;;4891126;29;20047;-64
2023/07/25 07:44:04;;;;;;;3.55;3.15;;;16.40;99.90;;;;;;4889636;29;20048;-65
2023/07/25 07:46:32;;;;;;;6.68;3.70;;;16.40;99.90;;;;;;4891025;29;20056;-64
2023/07/25 07:49:17;;;;;;;2.85;1.23;;;16.40;99.90;;;;;;4889393;29;20036;-64
2023/07/25 07:51:44;;;;;;;1.40;0.93;;;16.30;99.90;;;;;;4891394;29;20075;-65
2023/07/25 07:54:23;;;;;;;4.28;2.65;;;16.30;99.90;;;;;;4890752;29;20075;-66
2023/07/25 07:56:50;;;;;;;3.65;1.60;;;16.40;99.90;;;;;;4889964;29;20048;-65
2023/07/25 07:59:17;;;;;;;2.35;2.15;;;16.50;99.90;;;;;;4889113;29;20826;-65
2023/07/25 08:01:44;;;;;;;3.88;1.90;;;16.60;99.90;;;;;;4890971;29;20055;-66
2023/07/25 08:04:11;;;;;;;2.63;2.15;;;16.70;99.90;;;;;;4889728;29;20040;-66
2023/07/25 08:06:38;;;;;;;5.07;2.03;;;16.80;99.90;;;;;;4890858;29;20048;-64
2023/07/25 08:09:05;;;;;;;3.05;1.73;;;16.90;99.90;;;;;;4889923;29;20471;-67
2023/07/25 08:11:32;;;;;;;5.45;1.27;;;17.00;99.90;;;;;;4890365;29;20426;-64
2023/07/25 08:13:59;;;;;;;5.78;2.05;;;17.10;99.90;;;;;;4890800;29;20044;-64
2023/07/25 08:16:26;;;;;;;2.42;1.67;;;17.20;99.90;;;;;;4890314;29;20072;-65
2023/07/25 08:18:53;;;;;;;1.60;1.50;;;17.30;99.90;;;;;;4890500;29;20045;-64
2023/07/25 08:21:20;;;;;;;2.63;1.75;;;17.30;99.90;;;;;;4890432;29;20089;-65
2023/07/25 08:23:47;;;;;;;1.10;0.95;;;17.40;99.90;;;;;;4890606;29;20040;-66
2023/07/25 08:26:14;;;;;;;2.50;1.05;;;17.40;99.90;;;;;;4889474;29;20092;-65
2023/07/25 08:28:41;;;;;;;2.95;2.33;;;17.50;99.90;;;;;;4891223;29;20051;-65
2023/07/25 08:31:08;;;;;;;2.47;2.00;;;17.60;99.90;;;;;;4889292;29;20475;-65
2023/07/25 08:33:35;;;;;;;3.42;1.80;;;17.60;99.90;;;;;;4888769;29;20052;-66
2023/07/25 08:36:02;;;;;;;3.63;1.90;;;17.80;99.90;;;;;;4890193;29;20071;-65
2023/07/25 08:38:29;;;;;;;4.40;2.63;;;17.80;99.90;;;;;;4890897;29;20055;-67
2023/07/25 08:41:24;;;;;;;1.30;1.08;;;17.80;99.90;;;;;;4889335;29;20045;-66
2023/07/25 08:43:53;;;;;;;1.13;1.02;;;17.90;99.90;;;;;;4881969;29;20746;-65
2023/07/25 08:46:20;;;;;;;1.27;1.17;;;18.00;99.90;;;;;;4888332;29;20649;-69
2023/07/25 08:48:48;;;;;;;1.27;1.00;;;18.10;99.90;;;;;;4889276;29;20046;-65
2023/07/25 08:51:22;;;;;;;3.03;1.10;;;18.20;99.90;;;;;;4890085;29;20055;-67
2023/07/25 08:54:09;;;;;;;2.80;2.55;;;18.20;99.90;;;;;;4888765;29;20083;-67
2023/07/25 08:56:38;;;;;;;1.10;1.00;;;18.20;99.90;;;;;;4887936;29;20044;-66
2023/07/25 08:59:06;;;;;;;2.13;1.23;;;18.20;99.90;;;;;;4890070;29;20139;-66
2023/07/25 09:01:34;;;;;;;1.52;1.00;;;18.30;99.90;;;;;;4889762;29;20048;-66
2023/07/25 09:04:02;;;;;;;0.90;0.90;;;18.30;99.90;;;;;;4888827;29;20040;-66
2023/07/25 09:06:31;;;;;;;2.45;1.40;;;18.10;99.90;;;;;;4887132;29;20052;-66
2023/07/25 09:08:58;;;;;;;1.15;1.05;;;18.10;99.90;;;;;;4889798;29;20044;-68
2023/07/25 09:11:26;;;;;;;4.55;1.40;;;18.00;99.90;;;;;;4889765;29;20148;-66
2023/07/25 09:13:53;;;;;;;1.20;1.10;;;18.10;99.90;;;;;;4892947;29;20578;-67
2023/07/25 09:16:20;;;;;;;3.55;1.27;;;18.20;99.90;;;;;;4888979;29;20056;-66
2023/07/25 09:18:47;;;;;;;1.95;1.30;;;18.00;99.90;;;;;;4887378;29;20045;-68
2023/07/25 09:21:15;;;;;;;1.33;1.23;;;18.00;99.90;;;;;;4889112;29;20163;-65
2023/07/25 09:23:52;;;;;;;3.22;1.40;;;17.90;99.90;;;;;;4887786;29;20128;-68
2023/07/25 09:26:22;;;;;;;2.10;1.90;;;17.80;99.90;;;;;;4887049;29;20051;-66
2023/07/25 09:28:50;;;;;;;1.90;1.10;;;17.80;99.90;;;;;;4889972;29;20222;-67
2023/07/25 09:31:19;;;;;;;5.38;1.27;;;17.80;99.90;;;;;;4888828;29;20041;-66
2023/07/25 09:33:48;;;;;;;2.35;1.27;;;17.80;99.90;;;;;;4888852;29;20407;-68
2023/07/25 09:36:15;;;;;;;6.20;1.33;;;18.00;99.90;;;;;;4889308;29;20510;-67
2023/07/25 09:38:54;;;;;;;2.58;1.15;;;18.20;99.90;;;;;;4889023;29;20139;-66
2023/07/25 09:41:23;;;;;;;1.20;1.15;;;18.40;99.90;;;;;;4888882;29;20049;-68
2023/07/25 09:43:52;;;;;;;2.58;1.15;;;18.40;99.90;;;;;;4888401;29;20040;-68
2023/07/25 09:46:19;;;;;;;1.30;1.10;;;18.40;99.90;;;;;;4886864;29;20086;-65
2023/07/25 09:48:50;;;;;;;1.20;1.10;;;18.30;99.90;;;;;;4888868;29;20048;-66
2023/07/25 09:51:18;;;;;;;2.20;2.00;;;18.30;99.90;;;;;;4888297;29;20040;-66
2023/07/25 09:53:53;;;;;;;1.73;1.05;;;18.40;99.90;;;;;;4889102;29;20067;-67
2023/07/25 09:56:24;;;;;;;2.63;1.48;;;18.40;99.90;;;;;;4888867;29;20052;-67
2023/07/25 09:58:52;;;;;;;3.78;2.30;;;18.40;99.90;;;;;;4887161;29;20048;-67
2023/07/25 10:01:34;;;;;;;1.55;1.38;;;18.40;99.90;;;;;;4886911;29;20053;-67
2023/07/25 10:04:03;;;;;;;3.83;2.17;;;18.40;99.90;;;;;;4888301;29;20918;-67
2023/07/25 10:06:31;;;;;;;3.47;1.80;;;18.50;99.90;;;;;;4888820;29;20160;-67
2023/07/25 10:08:58;;;;;;;1.80;1.50;;;18.60;99.90;;;;;;4887712;29;20633;-68
2023/07/25 10:11:26;;;;;;;1.45;1.35;;;18.60;99.90;;;;;;4886279;29;20040;-66
2023/07/25 10:13:53;;;;;;;2.10;0.88;;;18.50;99.90;;;;;;4889434;29;20056;-66
2023/07/25 10:16:21;;;;;;;1.40;0.95;;;18.50;99.90;;;;;;4887525;29;20542;-66
2023/07/25 10:18:57;;;;;;;1.00;0.77;;;18.40;99.90;;;;;;4888831;29;20036;-69
2023/07/25 10:21:26;;;;;;;2.10;1.00;;;18.40;99.90;;;;;;4886401;29;20252;-67
2023/07/25 10:24:01;;;;;;;1.03;0.97;;;18.50;99.90;;;;;;4887935;29;20193;-66
2023/07/25 10:26:28;;;;;;;1.02;1.02;;;18.50;99.90;;;;;;4887807;29;20041;-67
2023/07/25 10:28:59;;;;;;;8.82;2.15;;;18.40;99.90;;;;;;4887335;29;20053;-67
2023/07/25 10:31:33;;;;;;;1.00;0.88;;;18.60;99.90;;;;;;4888095;29;20134;-66
2023/07/25 10:34:03;;;;;;;3.97;0.82;;;18.70;99.90;;;;;;4887288;29;20048;-67
2023/07/25 10:36:30;;;;;;;1.65;1.15;;;18.60;99.90;;;;;;4888173;29;20048;-66
2023/07/25 10:39:08;;;;;;;0.80;0.80;;;18.80;99.90;;;;;;4887465;29;20056;-68
2023/07/25 10:41:37;;;;;;;2.58;1.10;;;18.80;99.90;;;;;;4886788;29;20562;-66
2023/07/25 10:44:04;;;;;;;0.85;0.60;;;18.90;99.90;;;;;;4887552;29;20036;-66
2023/07/25 10:46:33;;;;;;;3.80;0.70;;;18.80;99.90;;;;;;4888260;29;20044;-66
2023/07/25 10:49:02;;;;;;;1.85;0.63;;;18.60;99.90;;;;;;4887047;29;20044;-67
2023/07/25 10:51:51;;;;;;;0.63;0.60;;;18.80;99.90;;;;;;4888409;29;20403;-67
2023/07/25 10:54:24;;;;;;;2.45;1.25;;;19.00;99.90;;;;;;4887652;29;20055;-67
2023/07/25 10:57:17;;;;;;;1.67;1.50;;;19.00;99.90;;;;;;4887198;29;20059;-66
2023/07/25 10:59:56;;;;;;;0.57;0.57;;;18.90;99.90;;;;;;4887044;29;20049;-66
2023/07/25 11:02:40;;;;;;;0.85;0.85;;;19.10;99.90;;;;;;4886084;29;20048;-66
2023/07/25 11:05:13;;;;;;;1.45;1.35;;;19.10;99.90;;;;;;4885627;29;20045;-67
2023/07/25 11:07:49;;;;;;;1.08;1.08;;;19.10;99.90;;;;;;4885486;29;20067;-66
2023/07/25 11:10:22;;;;;;;1.25;0.70;;;19.20;99.90;;;;;;4886884;29;20120;-66
2023/07/25 11:12:52;;;;;;;12.00;2.08;;;19.20;99.90;;;;;;4888826;29;20044;-67
2023/07/25 11:15:19;;;;;;;1.05;0.93;;;19.30;99.90;;;;;;4860828;29;20496;-67
2023/07/25 11:18:09;;;;;;;2.92;1.10;;;19.40;99.90;;;;;;4886953;29;20402;-66
2023/07/25 11:20:35;;;;;;;2.17;0.85;;;19.20;99.90;;;;;;4887159;29;20041;-68
2023/07/25 11:23:02;;;;;;;0.82;0.82;;;19.40;99.90;;;;;;4886919;29;20150;-67
2023/07/25 11:25:29;;;;;;;4.70;0.80;;;19.60;99.90;;;;;;4887933;29;20108;-66
2023/07/25 11:27:56;;;;;;;0.73;0.73;;;19.60;99.90;;;;;;4887480;29;20111;-68
2023/07/25 11:30:23;;;;;;;1.40;1.30;;;19.40;99.90;;;;;;4887969;29;20546;-66
2023/07/25 11:32:52;;;;;;;1.25;0.70;;;19.30;99.90;;;;;;4885108;29;20069;-67
2023/07/25 11:35:20;;;;;;;1.15;1.05;;;19.40;99.90;;;;;;4887539;29;20049;-65
2023/07/25 11:37:51;;;;;;;1.55;0.90;;;19.50;99.90;;;;;;4888024;29;20048;-68
2023/07/25 11:40:23;;;;;;;2.28;1.33;;;19.40;99.90;;;;;;4887568;29;20044;-67
2023/07/25 11:42:50;;;;;;;3.60;1.23;;;19.40;99.90;;;;;;4887699;29;20123;-68
2023/07/25 11:45:17;;;;;;;0.52;0.52;;;19.40;99.90;;;;;;4886924;29;20443;-66
2023/07/25 11:47:48;;;;;;;0.55;0.55;;;19.70;99.90;;;;;;4885476;29;20554;-67
2023/07/25 11:50:15;;;;;;;2.30;1.38;;;19.90;99.90;;;;;;4884392;29;20044;-66
2023/07/25 11:52:56;;;;;;;2.03;0.77;;;19.80;99.90;;;;;;4887299;29;20051;-67
2023/07/25 11:55:26;;;;;;;0.70;0.70;;;19.70;99.90;;;;;;4887220;29;20052;-66
2023/07/25 11:57:54;;;;;;;0.70;0.70;;;19.60;99.90;;;;;;4887786;29;20040;-66
2023/07/25 12:00:24;;;;;;;1.90;0.77;;;19.60;99.90;;;;;;4887631;29;20036;-66
2023/07/25 12:02:51;;;;;;;1.10;0.65;;;19.70;99.90;;;;;;4887359;29;20108;-67
2023/07/25 12:05:30;;;;;;;2.70;1.17;;;20.00;99.90;;;;;;4886162;29;20056;-66
2023/07/25 12:08:00;;;;;;;2.10;1.15;;;19.90;99.90;;;;;;4886272;29;20132;-66
2023/07/25 12:10:29;;;;;;;0.70;0.70;;;19.90;99.90;;;;;;4887310;29;20044;-65
2023/07/25 12:12:57;;;;;;;0.82;0.80;;;20.00;99.90;;;;;;4887585;29;20053;-68
2023/07/25 12:15:42;;;;;;;2.03;1.58;;;20.10;99.90;;;;;;4887561;29;20748;-67
2023/07/25 12:18:29;;;;;;;1.67;1.15;;;19.80;99.90;;;;;;4886088;29;20322;-67
2023/07/25 12:20:58;;;;;;;2.45;0.90;;;19.80;99.90;;;;;;4886892;29;20065;-67
2023/07/25 12:23:28;;;;;;;0.90;0.60;;;19.80;99.90;;;;;;4888614;29;20120;-66
2023/07/25 12:25:56;;;;;;;2.35;0.90;;;19.80;99.90;;;;;;4890206;29;20059;-66
2023/07/25 12:28:24;;;;;;;6.32;1.48;;;19.90;99.90;;;;;;4890318;29;20049;-67
2023/07/25 12:30:51;;;;;;;1.35;1.00;;;19.80;99.90;;;;;;4890410;29;20490;-67
2023/07/25 12:33:18;;;;;;;2.10;0.90;;;19.70;99.90;;;;;;4890453;29;20088;-66
2023/07/25 12:35:45;;;;;;;1.35;0.88;;;19.80;99.90;;;;;;4889907;29;20048;-67
2023/07/25 12:38:12;;;;;;;0.98;0.80;;;20.00;99.90;;;;;;4890815;29;20056;-67
2023/07/25 12:40:39;;;;;;;1.02;1.02;;;20.20;99.90;;;;;;4890074;29;20481;-66
2023/07/25 12:43:06;;;;;;;1.42;0.90;;;20.20;99.90;;;;;;4890103;29;20687;-66
2023/07/25 12:45:33;;;;;;;1.48;1.00;;;20.30;99.90;;;;;;4888321;29;20044;-67
2023/07/25 12:48:00;;;;;;;7.03;1.23;;;20.30;99.90;;;;;;4889177;29;20063;-67
2023/07/25 12:50:28;;;;;;;2.17;0.80;;;20.60;99.90;;;;;;4890358;29;20108;-66
2023/07/25 12:52:56;;;;;;;2.63;0.85;;;20.70;99.90;;;;;;4888499;29;20049;-67
2023/07/25 12:55:23;;;;;;;0.65;0.65;;;20.70;99.90;;;;;;4888484;29;20482;-67
2023/07/25 12:57:50;;;;;;;1.85;1.25;;;20.70;99.90;;;;;;4891518;29;20052;-67
2023/07/25 13:00:18;;;;;;;1.30;1.02;;;20.60;99.90;;;;;;4890048;29;20040;-68
2023/07/25 13:02:45;;;;;;;1.55;1.45;;;20.60;99.90;;;;;;4890465;29;20741;-67
2023/07/25 13:05:12;;;;;;;1.40;0.73;;;20.90;99.90;;;;;;4889970;29;20049;-66
2023/07/25 13:07:39;;;;;;;3.05;1.15;;;20.70;99.90;;;;;;4887824;29;20048;-67
2023/07/25 13:10:06;;;;;;;2.65;1.17;;;20.70;99.90;;;;;;4887690;29;20048;-68
2023/07/25 13:12:34;;;;;;;1.70;0.80;;;20.80;99.90;;;;;;4892331;29;20050;-66
2023/07/25 13:15:01;;;;;;;1.38;1.10;;;20.80;99.90;;;;;;4889443;29;20601;-67
2023/07/25 13:17:28;;;;;;;1.88;1.77;;;21.00;99.90;;;;;;4890333;29;20044;-68
2023/07/25 13:19:55;;;;;;;1.45;0.93;;;20.90;99.90;;;;;;4886692;29;20567;-67
2023/07/25 13:22:22;;;;;;;1.80;1.40;;;20.80;99.90;;;;;;4889534;29;20051;-67
2023/07/25 13:24:55;;;;;;;1.58;1.30;;;20.80;99.90;;;;;;4889944;29;20148;-67
2023/07/25 13:27:26;;;;;;;1.40;1.25;;;21.00;99.90;;;;;;4889217;29;20041;-67
2023/07/25 13:29:54;;;;;;;1.98;1.23;;;21.00;99.90;;;;;;4889534;29;20084;-67
2023/07/25 13:32:21;;;;;;;4.22;1.13;;;21.10;99.90;;;;;;4886287;29;20067;-68
2023/07/25 13:34:48;;;;;;;1.17;1.10;;;21.00;99.90;;;;;;4889395;29;20048;-67
2023/07/25 13:37:15;;;;;;;4.25;1.65;;;21.00;99.90;;;;;;4887845;29;20066;-66
2023/07/25 13:39:43;;;;;;;2.25;0.90;;;21.30;99.90;;;;;;4889755;29;20127;-66
2023/07/25 13:42:10;;;;;;;1.83;1.10;;;21.40;99.90;;;;;;4889390;29;20044;-66
2023/07/25 13:44:37;;;;;;;3.50;1.35;;;21.60;99.90;;;;;;4888655;29;20101;-66
2023/07/25 13:47:21;;;;;;;1.80;1.20;;;21.60;99.90;;;;;;4888990;29;20040;-67
2023/07/25 13:49:48;;;;;;;1.23;0.90;;;21.60;99.90;;;;;;4887835;29;20048;-67
2023/07/25 13:52:16;;;;;;;1.25;1.15;;;21.70;99.90;;;;;;4888715;29;20779;-66
2023/07/25 13:54:44;;;;;;;1.60;1.40;;;21.70;99.90;;;;;;4887967;29;20040;-67
2023/07/25 13:57:11;;;;;;;2.70;2.35;;;22.00;99.90;;;;;;4888377;29;20514;-68
2023/07/25 13:59:38;;;;;;;3.00;2.17;;;21.90;99.90;;;;;;4888179;29;20052;-67
2023/07/25 14:02:06;;;;;;;2.33;1.67;;;22.10;99.90;;;;;;4889277;29;20371;-66
2023/07/25 14:04:33;;;;;;;1.98;1.35;;;22.30;99.90;;;;;;4887637;29;20478;-66
2023/07/25 14:07:00;;;;;;;1.95;1.35;;;22.30;99.90;;;;;;4888585;29;20048;-67
2023/07/25 14:09:27;;;;;;;2.25;1.45;;;22.10;99.90;;;;;;4887582;29;20403;-66
2023/07/25 14:11:54;;;;;;;2.58;2.30;;;22.10;99.90;;;;;;4890088;29;20130;-67
2023/07/25 14:14:21;;;;;;;3.95;1.80;;;22.20;99.90;;;;;;4888817;29;20059;-67
2023/07/25 14:16:48;;;;;;;1.85;1.35;;;22.20;99.90;;;;;;4889817;29;20045;-68
2023/07/25 14:19:15;;;;;;;1.27;1.17;;;22.30;99.90;;;;;;4887277;29;20047;-68
2023/07/25 14:21:43;;;;;;;1.83;1.60;;;22.50;99.90;;;;;;4889853;29;20048;-67
2023/07/25 14:24:10;;;;;;;1.52;1.02;;;22.50;99.90;;;;;;4886240;29;20525;-67
2023/07/25 14:26:37;;;;;;;2.03;1.67;;;22.60;99.90;;;;;;4885990;29;20033;-67
2023/07/25 14:29:04;;;;;;;3.42;1.73;;;22.70;99.90;;;;;;4888388;29;20048;-67
2023/07/25 14:31:31;;;;;;;0.98;0.90;;;22.80;99.90;;;;;;4887996;29;20058;-66
2023/07/25 14:33:58;;;;;;;3.22;1.38;;;22.90;99.90;;;;;;4887524;29;20088;-68
2023/07/25 14:36:26;;;;;;;2.15;0.77;;;23.10;99.90;;;;;;4889531;29;20044;-67
2023/07/25 14:38:53;;;;;;;3.47;3.13;;;23.20;99.90;;;;;;4888671;29;20402;-66
2023/07/25 14:41:20;;;;;;;1.42;0.95;;;23.30;99.90;;;;;;4888547;29;20056;-66
2023/07/25 14:43:47;;;;;;;5.28;2.33;;;23.60;99.90;;;;;;4888992;29;20047;-68
2023/07/25 14:46:17;;;;;;;1.10;1.00;;;23.60;99.90;;;;;;4887941;29;20161;-66
2023/07/25 14:48:44;;;;;;;1.63;1.10;;;23.50;99.90;;;;;;4887743;29;20048;-66
2023/07/25 14:51:12;;;;;;;3.50;1.00;;;23.50;99.90;;;;;;4887664;29;20076;-66
2023/07/25 14:53:39;;;;;;;2.78;1.35;;;23.80;99.90;;;;;;4887513;29;20562;-67
2023/07/25 14:56:06;;;;;;;2.50;2.13;;;23.90;99.90;;;;;;4884733;29;20116;-66
2023/07/25 14:58:33;;;;;;;2.53;1.13;;;24.00;99.90;;;;;;4887002;29;20718;-66
2023/07/25 15:01:00;;;;;;;2.65;1.08;;;23.90;99.90;;;;;;4885367;29;20413;-66
2023/07/25 15:03:27;;;;;;;4.25;1.92;;;24.00;99.90;;;;;;4888082;29;20509;-67
2023/07/25 15:05:54;;;;;;;0.77;0.77;;;24.00;99.90;;;;;;4886871;29;20048;-67
2023/07/25 15:08:21;;;;;;;1.95;0.85;;;24.20;99.90;;;;;;4888481;29;20104;-67
2023/07/25 15:10:49;;;;;;;2.75;1.27;;;24.40;99.90;;;;;;4886881;29;20155;-68
2023/07/25 15:13:16;;;;;;;1.00;0.93;;;24.60;99.90;;;;;;4887813;29;20036;-66
2023/07/25 15:15:43;;;;;;;1.55;0.82;;;24.40;99.90;;;;;;4889305;29;20049;-66
2023/07/25 15:18:10;;;;;;;2.03;1.15;;;24.50;99.90;;;;;;4887718;29;20067;-66
2023/07/25 15:20:37;;;;;;;3.03;2.03;;;24.50;99.90;;;;;;4888432;29;20317;-67
2023/07/25 15:23:04;;;;;;;3.08;1.20;;;24.70;99.90;;;;;;4887058;29;20053;-67
2023/07/25 15:25:31;;;;;;;3.53;1.60;;;24.60;99.90;;;;;;4887533;29;20036;-68
2023/07/25 15:27:58;;;;;;;2.95;1.80;;;24.60;99.90;;;;;;4885028;29;20045;-66
2023/07/25 15:30:26;;;;;;;4.22;1.40;;;24.50;99.90;;;;;;4888480;29;20064;-67
2023/07/25 15:32:53;;;;;;;1.38;1.10;;;24.50;99.90;;;;;;4885920;29;20072;-67
2023/07/25 15:35:24;;;;;;;1.42;1.08;;;24.40;99.90;;;;;;4887052;29;20052;-66
2023/07/25 15:37:51;;;;;;;3.85;1.52;;;24.70;99.90;;;;;;4887597;29;20359;-67
2023/07/25 15:40:18;;;;;;;2.20;1.33;;;24.60;99.90;;;;;;4884334;29;20041;-67
2023/07/25 15:42:45;;;;;;;3.03;1.20;;;24.80;99.90;;;;;;4886227;29;20040;-66
2023/07/25 15:45:12;;;;;;;3.22;1.58;;;24.70;99.90;;;;;;4885401;29;20052;-67
2023/07/25 15:47:39;;;;;;;3.78;1.45;;;24.80;99.90;;;;;;4887887;29;20073;-66
2023/07/25 15:50:06;;;;;;;1.80;1.17;;;25.00;99.90;;;;;;4887011;29;20076;-66
2023/07/25 15:52:33;;;;;;;1.77;1.00;;;25.30;99.90;;;;;;4888133;29;20052;-66
2023/07/25 15:55:01;;;;;;;2.38;1.70;;;25.20;99.90;;;;;;4887511;29;20093;-66
2023/07/25 15:57:28;;;;;;;2.03;1.02;;;25.30;99.90;;;;;;4887163;29;20041;-66
2023/07/25 15:59:55;;;;;;;1.42;1.15;;;25.60;99.80;;;;;;4888635;29;20056;-66
2023/07/25 16:02:22;;;;;;;4.22;1.52;;;25.40;99.80;;;;;;4890830;29;20063;-66
2023/07/25 16:04:49;;;;;;;2.05;1.30;;;25.40;99.80;;;;;;4891219;29;20049;-66
2023/07/25 16:07:16;;;;;;;2.55;1.40;;;25.40;99.70;;;;;;4890908;29;20037;-66
2023/07/25 16:09:43;;;;;;;2.28;0.93;;;25.60;99.90;;;;;;4891005;29;20396;-66
2023/07/25 16:12:10;;;;;;;2.88;0.90;;;25.60;99.60;;;;;;4890198;29;20048;-66
2023/07/25 16:14:37;;;;;;;2.45;1.05;;;25.70;99.50;;;;;;4893687;29;20080;-66
2023/07/25 16:17:04;;;;;;;2.10;0.88;;;25.60;98.90;;;;;;4887847;29;20135;-66
2023/07/25 16:19:31;;;;;;;1.30;0.70;;;25.70;98.40;;;;;;4890670;29;20068;-65
2023/07/25 16:21:59;;;;;;;2.92;1.20;;;26.00;98.00;;;;;;4891461;29;20040;-66
2023/07/25 16:24:25;;;;;;;3.20;1.58;;;26.00;98.50;;;;;;4890601;29;20051;-66
2023/07/25 16:26:52;;;;;;;2.10;1.00;;;26.10;97.90;;;;;;4890771;29;20040;-67
2023/07/25 16:29:19;;;;;;;7.18;1.48;;;26.20;97.70;;;;;;4890789;29;20063;-68
2023/07/25 16:31:47;;;;;;;1.42;1.30;;;26.40;98.70;;;;;;4887920;29;20057;-68
2023/07/25 16:34:17;;;;;;;2.55;1.30;;;26.40;97.50;;;;;;4889553;29;20043;-66
2023/07/25 16:36:44;;;;;;;2.05;1.23;;;26.40;97.60;;;;;;4891146;29;20049;-68
2023/07/25 16:39:11;;;;;;;2.80;0.90;;;26.40;98.30;;;;;;4889202;29;20236;-66
2023/07/25 16:41:39;;;;;;;3.00;1.00;;;26.40;97.60;;;;;;4890677;29;20051;-66
2023/07/25 16:44:06;;;;;;;2.45;1.08;;;26.30;97.30;;;;;;4890795;29;20044;-65
2023/07/25 16:46:33;;;;;;;3.35;1.52;;;26.40;97.00;;;;;;4889042;29;20045;-66
2023/07/25 16:49:00;;;;;;;1.20;0.90;;;26.30;96.90;;;;;;4885331;29;20052;-66
2023/07/25 16:51:28;;;;;;;1.50;0.95;;;25.60;97.40;;;;;;4890277;29;20052;-66
2023/07/25 16:53:57;;;;;;;1.33;1.20;;;25.70;98.30;;;;;;4887947;29;20049;-66
2023/07/25 16:56:24;;;;;;;6.80;1.58;;;25.80;97.90;;;;;;4890799;29;20045;-66
2023/07/25 16:58:51;;;;;;;3.88;1.42;;;25.60;97.80;;;;;;4890272;29;20040;-67
2023/07/25 17:01:18;;;;;;;3.13;1.77;;;25.50;98.30;;;;;;4890510;29;20059;-66
2023/07/25 17:03:45;;;;;;;1.08;0.98;;;25.80;97.80;;;;;;4887256;29;20369;-66
2023/07/25 17:06:13;;;;;;;2.80;1.30;;;25.90;97.60;;;;;;4889996;29;20052;-66
2023/07/25 17:08:41;;;;;;;1.85;1.20;;;25.50;98.00;;;;;;4889263;29;20044;-67
2023/07/25 17:11:11;;;;;;;1.95;0.93;;;25.30;98.40;;;;;;4888974;29;20045;-66
2023/07/25 17:13:38;;;;;;;1.27;1.02;;;25.40;98.40;;;;;;4891636;29;20044;-67
2023/07/25 17:16:06;;;;;;;2.28;1.00;;;25.20;98.80;;;;;;4889503;29;20049;-66
2023/07/25 17:18:33;;;;;;;2.28;1.50;;;25.60;98.70;;;;;;4888903;29;20044;-67
2023/07/25 17:21:00;;;;;;;2.53;1.27;;;25.60;98.40;;;;;;4887480;29;20054;-67
2023/07/25 17:23:27;;;;;;;2.83;1.25;;;25.20;98.50;;;;;;4889657;29;20043;-67
2023/07/25 17:25:54;;;;;;;4.97;1.48;;;25.20;99.20;;;;;;4888816;29;20061;-67
2023/07/25 17:28:21;;;;;;;3.63;1.30;;;25.20;99.10;;;;;;4887421;29;20045;-68
2023/07/25 17:30:49;;;;;;;2.25;1.23;;;25.20;98.90;;;;;;4889670;29;20473;-68
2023/07/25 17:33:16;;;;;;;3.45;1.40;;;25.20;98.90;;;;;;4881424;29;20072;-66
2023/07/25 17:35:43;;;;;;;1.77;1.40;;;25.50;98.50;;;;;;4882725;29;20048;-66
2023/07/25 17:38:13;;;;;;;2.22;1.38;;;25.40;98.20;;;;;;4888316;29;20470;-67
2023/07/25 17:40:41;;;;;;;1.10;1.00;;;25.40;97.80;;;;;;4889639;29;20088;-65
2023/07/25 17:43:08;;;;;;;2.67;1.67;;;25.40;98.10;;;;;;4887790;29;20503;-67
2023/07/25 17:45:36;;;;;;;1.95;0.93;;;25.50;98.00;;;;;;4888313;29;20048;-66
2023/07/25 17:48:03;;;;;;;0.77;0.77;;;25.70;98.00;;;;;;4888327;29;20048;-67
2023/07/25 17:50:30;;;;;;;1.70;1.30;;;25.60;97.80;;;;;;4888390;29;20056;-66
2023/07/25 17:52:57;;;;;;;4.00;1.73;;;25.50;98.10;;;;;;4888035;29;20179;-66
2023/07/25 17:55:24;;;;;;;4.20;1.30;;;25.10;97.90;;;;;;4887918;29;20052;-65
2023/07/25 17:57:51;;;;;;;3.00;1.23;;;24.80;98.50;;;;;;4889418;29;20052;-66
2023/07/25 18:00:18;;;;;;;5.28;2.38;;;24.70;98.60;;;;;;4886580;29;20562;-66
2023/07/25 18:02:46;;;;;;;5.63;1.88;;;24.60;98.60;;;;;;4888827;29;20043;-67
2023/07/25 18:05:14;;;;;;;1.48;1.23;;;24.30;99.00;;;;;;4886829;29;20060;-66
2023/07/25 18:07:41;;;;;;;5.45;1.17;;;23.90;99.30;;;;;;4889215;29;20044;-66
2023/07/25 18:10:08;;;;;;;2.28;1.35;;;23.80;99.10;;;;;;4888205;29;20048;-66
2023/07/25 18:12:35;;;;;;;1.70;1.55;;;23.60;99.40;;;;;;4890064;29;20048;-66
2023/07/25 18:15:02;;;;;;;2.15;1.45;;;23.40;99.10;;;;;;4888383;29;20048;-67
2023/07/25 18:17:30;;;;;;;3.08;1.08;;;23.20;99.40;;;;;;4887499;29;20842;-66
2023/07/25 18:19:57;;;;;;;3.60;1.67;;;23.30;99.60;;;;;;4887898;29;20053;-66
2023/07/25 18:22:25;;;;;;;2.30;1.70;;;23.20;99.50;;;;;;4888904;29;20061;-67
2023/07/25 18:24:52;;;;;;;1.75;1.25;;;23.30;99.40;;;;;;4888570;29;20143;-66